Latest Weather Observations for Oakey

IDQ60901

Issued at 1:41 pm EST Saturday 2 July 2016 (issued every 10 minutes, with the page automatically refreshed every 10 minutes)

About weather observations | Map of Brisbane area stations | Latest observations for Brisbane area | Other Formats
Station Details ID: 041359 Name: OAKEY AERO Lat: -27.40 Lon: 151.74 Height: 405.69 m
Data from the previous 72 hours. | See also: Recent months at Oakey
Date/Time
EST
Temp
°C
App
Temp
°C
Dew
Point
°C
Rel
Hum
%
Delta-T
°C
Wind Press
QNH
hPa
Press
MSL
hPa
Rain since
9am
mm
Dir  Spd
km/h
Gust
km/h
Spd
kts
Gust
kts
02/01:30pm 16.0 12.8 1.0 36 6.7 WSW 7 15 4 8 1023.9 1024.0 0.0
02/01:00pm 15.6 12.6 2.1 40 6.1 W 7 17 4 9 1024.1 1024.2 0.0
02/12:30pm 14.3 11.3 1.9 43 5.5 W 7 13 4 7 1024.4 1024.6 0.0
02/12:00pm 13.2 10.1 3.6 52 4.4 W 9 15 5 8 1024.7 1024.9 0.0
02/11:30am 12.5 9.6 4.5 58 3.7 W 9 17 5 9 1025.2 1025.4 0.0
02/11:00am 11.0 8.0 4.2 63 3.1 WNW 9 15 5 8 1025.6 1025.8 0.0
02/10:30am 9.8 6.9 4.4 69 2.5 SSW 9 15 5 8 1025.8 1026.0 0.0
02/10:00am 8.4 5.0 4.0 74 1.9 WSW 11 17 6 9 1026.1 1026.2 0.0
02/09:30am 7.1 4.0 3.5 78 1.6 WSW 9 15 5 8 1026.3 1026.5 0.0
02/09:00am 6.7 3.6 3.7 81 1.3 W 9 13 5 7 1026.1 1026.2 0.0
02/08:30am 5.6 3.0 4.1 90 0.7 NNE 7 7 4 4 1026.0 1026.1 0.0
02/08:00am 3.2 0.9 2.5 95 0.3 N 4 7 2 4 1025.8 1026.0 0.0
02/07:30am 0.6 -2.2 -0.1 95 0.3 NNE 4 6 2 3 1025.5 1025.7 0.0
02/07:00am -0.2 -3.5 -0.9 95 0.2 NE 6 7 3 4 1025.1 1025.3 0.0
02/06:30am -0.5 -4.0 -1.5 93 0.3 NE 7 9 4 5 1024.8 1025.0 0.0
02/06:00am 0.1 -3.2 -0.9 93 0.4 NE 6 9 3 5 1024.4 1024.6 0.0
02/05:30am 0.9 -1.5 0.0 94 0.3 N 2 7 1 4 1024.2 1024.4 0.0
02/05:00am 1.0 -3.1 0.1 94 0.3 W 11 13 6 7 1023.7 1023.8 0.0
02/04:30am 1.3 -2.7 0.3 93 0.4 W 11 13 6 7 1023.5 1023.6 0.0
02/04:00am 1.4 -2.6 0.2 92 0.4 WSW 11 13 6 7 1023.2 1023.4 0.0
02/03:30am 1.9 -3.2 0.9 93 0.4 WSW 17 17 9 9 1023.5 1023.6 0.0
02/03:00am 1.8 -1.8 0.3 90 0.6 WSW 9 13 5 7 1023.7 1023.8 0.0
02/02:30am 3.4 -1.5 2.2 92 0.5 WNW 17 19 9 10 1023.7 1023.8 0.0
02/02:00am 3.0 -1.6 1.7 91 0.5 W 15 19 8 10 1023.8 1023.9 0.0
02/01:30am 2.2 -1.1 0.4 88 0.7 NW 7 11 4 6 1023.9 1024.0 0.0
02/01:00am 2.9 -0.7 0.8 86 0.8 WNW 9 11 5 6 1024.2 1024.4 0.0
02/12:30am 3.6 0.1 1.3 85 0.9 WNW 9 11 5 6 1024.2 1024.4 0.0
02/12:00am 4.8 1.5 2.7 86 0.9 WNW 9 13 5 7 1024.1 1024.2 0.0
 
Date/Time
EST
Temp
°C
App
Temp
°C
Dew
Point
°C
Rel
Hum
%
Delta-T
°C
Wind Press
QNH
hPa
Press
MSL
hPa
Rain since
9am
mm
Dir  Spd
km/h
Gust
km/h
Spd
kts
Gust
kts
01/11:30pm 4.7 0.6 2.4 85 1.0 W 13 15 7 8 1024.0 1024.1 0.0
01/11:00pm 5.8 0.7 3.1 83 1.1 WSW 19 20 10 11 1024.0 1024.1 0.0
01/10:30pm 5.6 1.6 2.8 82 1.2 W 13 15 7 8 1024.1 1024.2 0.0
01/10:00pm 5.9 2.6 2.7 80 1.3 NW 9 11 5 6 1024.1 1024.2 0.0
01/09:30pm 7.0 3.0 3.1 76 1.7 W 13 15 7 8 1023.9 1024.0 0.0
01/09:00pm 7.8 4.6 3.1 72 2.0 W 9 11 5 6 1023.8 1023.9 0.0
01/08:30pm 9.3 6.6 3.9 69 2.4 WNW 7 9 4 5 1023.6 1023.7 0.0
01/08:00pm 8.3 6.2 4.1 75 1.9 SSW 4 7 2 4 1023.1 1023.3 0.0
01/07:30pm 9.1 4.9 3.9 70 2.3 WSW 15 17 8 9 1022.6 1022.8 0.0
01/07:00pm 9.9 5.3 3.9 66 2.7 WSW 17 19 9 10 1022.1 1022.3 0.0
01/06:30pm 11.1 6.0 3.9 61 3.3 WSW 20 24 11 13 1021.7 1021.8 0.0
01/06:00pm 12.2 6.8 4.4 59 3.6 WSW 22 26 12 14 1021.3 1021.4 0.0
01/05:30pm 13.0 8.0 4.4 56 4.0 WSW 20 26 11 14 1020.9 1021.0 0.0
01/05:00pm 14.5 7.5 4.2 50 4.8 WSW 30 41 16 22 1020.5 1020.7 0.0
01/04:30pm 15.6 7.7 4.3 47 5.4 WSW 35 43 19 23 1020.3 1020.5 0.0
01/04:00pm 16.4 8.5 4.1 44 5.8 WSW 35 44 19 24 1020.1 1020.3 0.0
01/03:30pm 17.0 9.5 4.3 43 6.1 WSW 33 44 18 24 1019.9 1020.0 0.0
01/03:00pm 17.5 9.6 4.1 41 6.4 WSW 35 46 19 25 1019.7 1019.8 0.0
01/02:30pm 17.6 9.8 2.8 37 6.9 WSW 33 50 18 27 1019.5 1019.6 0.0
01/02:23pm 17.9 10.3 3.0 37 7.0 WSW 32 50 17 27 1019.5 1019.6 0.0
01/02:00pm 17.6 9.8 2.8 37 6.9 WSW 33 43 18 23 1019.6 1019.7 0.0
01/01:30pm 17.4 9.8 2.6 37 6.9 WSW 32 43 17 23 1019.6 1019.7 0.0
01/01:00pm 17.6 10.4 3.1 38 6.8 W 30 41 16 22 1019.8 1019.9 0.0
01/12:30pm 17.0 10.2 3.3 40 6.5 WSW 28 35 15 19 1020.0 1020.2 0.0
01/12:00pm 16.8 10.1 3.5 41 6.3 W 28 39 15 21 1020.8 1020.9 0.0
01/11:30am 16.3 10.4 3.7 43 6.0 WSW 24 39 13 21 1021.2 1021.3 0.0
01/11:00am 15.5 9.0 4.8 49 5.1 WSW 28 35 15 19 1021.7 1021.8 0.0
01/10:30am 15.0 8.6 5.0 51 4.8 WSW 28 33 15 18 1022.0 1022.1 0.0
01/10:00am 14.3 10.2 6.4 59 3.9 W 17 22 9 12 1022.2 1022.4 0.0
01/09:30am 12.5 9.5 5.9 64 3.2 W 11 15 6 8 1022.2 1022.2 0.0
01/09:00am 11.4 9.6 7.1 75 2.1 NW 6 9 3 5 1022.2 1022.2 0.0
01/08:30am 9.6 8.1 6.9 83 1.3 NE 4 6 2 3 1022.2 1022.2 0.0
01/08:00am 7.0 5.0 6.3 95 0.3 ENE 6 7 3 4 1022.0 1022.0 0.0
01/07:30am 4.8 2.4 4.4 97 0.2 NNE 6 9 3 5 1021.7 1021.7 0.0
01/07:00am 2.9 -0.1 2.2 95 0.3 NNE 7 7 4 4 1021.4 1021.3 0.0
01/06:30am 3.1 0.4 2.4 95 0.3 NE 6 7 3 4 1021.0 1020.9 0.0
01/06:00am 3.3 0.6 2.6 95 0.3 NNE 6 7 3 4 1020.9 1020.8 0.0
01/05:30am 3.3 0.4 2.4 94 0.4 NNE 7 9 4 5 1020.5 1020.5 0.0
01/05:00am 4.1 1.3 3.4 95 0.3 NNE 7 9 4 5 1020.3 1020.3 0.0
01/04:30am 3.8 0.9 2.8 93 0.4 NE 7 9 4 5 1020.0 1020.0 0.0
01/04:00am 5.1 3.8 4.1 93 0.4 CALM 0 0 0 0 1020.0 1020.0 0.0
01/03:30am 4.9 3.6 3.9 93 0.4 CALM 0 0 0 0 1019.9 1019.9 0.0
01/03:00am 5.1 2.0 3.8 91 0.6 NE 9 11 5 6 1019.9 1019.9 0.0
01/02:30am 5.4 2.9 3.7 89 0.7 SSE 6 7 3 4 1019.9 1019.9 0.0
01/02:00am 5.4 2.7 3.6 88 0.8 SSE 7 9 4 5 1020.0 1020.0 0.0
01/01:30am 6.8 3.9 4.8 87 0.9 S 9 11 5 6 1020.1 1020.1 0.0
01/01:00am 7.9 5.7 5.4 84 1.1 SSE 6 7 3 4 1020.2 1020.2 0.0
01/12:30am 8.1 5.9 6.1 87 0.9 ESE 7 9 4 5 1020.2 1020.2 0.0
01/12:00am 8.8 6.8 7.1 89 0.8 ESE 7 7 4 4 1020.4 1020.4 0.0
 
Date/Time
EST
Temp
°C
App
Temp
°C
Dew
Point
°C
Rel
Hum
%
Delta-T
°C
Wind Press
QNH
hPa
Press
MSL
hPa
Rain since
9am
mm
Dir  Spd
km/h
Gust
km/h
Spd
kts
Gust
kts
30/11:30pm 8.4 7.3 6.7 89 0.8 NE 2 6 1 3 1020.6 1020.6 0.0
30/11:00pm 8.4 7.4 5.7 83 1.2 CALM 0 6 0 3 1020.6 1020.6 0.0
30/10:30pm 9.4 7.2 6.3 81 1.5 NW 7 15 4 8 1020.5 1020.5 0.0
30/10:00pm 9.8 6.2 6.7 81 1.5 N 15 17 8 9 1020.3 1020.3 0.0
30/09:30pm 9.2 5.9 6.3 82 1.4 NNE 13 17 7 9 1020.8 1020.7 0.0
30/09:00pm 11.1 7.0 6.3 72 2.3 NNE 17 19 9 10 1021.1 1021.0 0.0
30/08:30pm 10.9 7.7 6.8 76 2.0 NNE 13 17 7 9 1021.7 1021.7 0.0
30/08:00pm 10.4 7.9 6.5 77 1.9 NNE 9 9 5 5 1021.8 1021.8 0.0
30/07:30pm 11.5 10.2 6.0 69 2.6 W 2 6 1 3 1021.7 1021.7 0.0
30/07:00pm 11.3 9.2 6.0 70 2.5 NNW 6 7 3 4 1021.3 1021.2 0.0
30/06:30pm 12.5 9.5 6.1 65 3.1 W 11 17 6 9 1020.9 1020.8 0.0
30/06:00pm 12.5 9.6 4.5 58 3.7 NW 9 11 5 6 1020.4 1020.4 0.0
30/05:30pm 14.1 10.5 5.2 55 4.3 NW 13 15 7 8 1020.2 1020.2 0.0
30/05:00pm 16.2 11.9 5.2 48 5.3 NW 17 22 9 12 1020.1 1020.1 0.0
30/04:30pm 18.6 13.9 3.3 36 7.3 NW 17 26 9 14 1019.9 1019.9 0.0
30/04:00pm 19.2 14.2 4.6 38 7.2 NNW 20 24 11 13 1020.0 1020.0 0.0
30/03:30pm 19.3 14.5 4.6 38 7.2 N 19 28 10 15 1019.9 1019.9 0.0
30/03:00pm 19.6 14.6 4.5 37 7.4 NW 20 28 11 15 1020.2 1020.2 0.0
30/02:30pm 19.4 14.7 5.1 39 7.1 NW 19 26 10 14 1020.3 1020.3 0.0
30/02:00pm 19.0 14.0 3.6 36 7.4 NNW 19 26 10 14 1020.5 1020.5 0.0
30/01:30pm 18.9 14.8 6.1 43 6.5 NNW 17 24 9 13 1021.2 1021.1 0.0
30/01:00pm 18.2 14.1 6.4 46 5.9 N 17 26 9 14 1021.8 1021.8 0.0
30/12:30pm 18.7 15.6 7.2 47 5.9 N 13 20 7 11 1022.4 1022.4 0.0
30/12:00pm 18.5 14.0 6.0 44 6.3 N 19 24 10 13 1023.0 1023.0 0.0
30/11:30am 18.0 14.2 7.7 51 5.3 NNE 17 35 9 19 1023.5 1023.4 0.0
30/11:00am 17.7 15.3 8.6 55 4.8 NNE 11 28 6 15 1024.0 1024.0 0.0
30/10:30am 15.4 14.0 7.2 58 4.1 W 4 9 2 5 1024.5 1024.5 0.0
30/10:00am 15.1 13.4 7.6 61 3.8 N 6 7 3 4 1024.7 1024.7 0.0
30/09:30am 13.2 11.5 7.6 69 2.8 NNE 6 9 3 5 1025.0 1025.0 0.0
30/09:00am 10.5 8.2 7.6 82 1.4 ENE 9 11 5 6 1024.8 1024.8 0.0
30/08:30am 8.1 6.2 6.6 90 0.7 NNE 6 7 3 4 1024.8 1024.8 0.0
30/08:00am 5.5 4.0 5.1 97 0.2 NNE 2 6 1 3 1024.7 1024.7 0.0
30/07:30am 3.2 0.0 3.1 99 0.0 NNE 9 13 5 7 1024.3 1024.3 0.0
30/07:00am 1.0 -2.6 0.6 97 0.2 ESE 9 11 5 6 1024.1 1024.1 0.0
30/06:30am 0.1 -3.7 -0.7 94 0.3 SE 9 9 5 5 1023.8 1023.8 0.0
30/06:00am 1.1 -2.2 0.4 95 0.3 NE 7 9 4 5 1023.7 1023.7 0.0
30/05:30am 1.1 -2.0 0.2 94 0.3 NNE 6 7 3 4 1023.6 1023.5 0.0
30/05:00am 1.5 -2.1 0.5 93 0.4 NE 9 9 5 5 1023.5 1023.4 0.0
30/04:30am 2.1 -2.2 1.2 94 0.4 E 13 13 7 7 1023.5 1023.4 0.0
30/04:00am 2.8 -0.6 1.8 93 0.4 E 9 13 5 7 1023.7 1023.7 0.0
30/03:30am 3.0 0.2 2.1 94 0.4 NNE 6 9 3 5 1023.7 1023.7 0.0
30/03:00am 3.3 0.0 2.4 94 0.4 NNE 9 11 5 6 1023.9 1023.9 0.0
30/02:30am 2.4 -1.1 1.4 93 0.4 NNE 9 11 5 6 1024.2 1024.2 0.0
30/02:00am 1.8 -1.2 0.5 91 0.5 NNE 6 6 3 3 1024.4 1024.4 0.0
30/01:30am 2.4 0.6 1.1 91 0.5 CALM 0 6 0 3 1024.9 1024.9 0.0
30/01:00am 2.5 -1.0 1.0 90 0.6 ESE 9 11 5 6 1025.1 1025.1 0.0
30/12:30am 2.9 -0.2 1.1 88 0.7 ESE 7 9 4 5 1025.4 1025.4 0.0
30/12:00am 3.9 1.2 2.4 90 0.6 NNE 6 7 3 4 1025.6 1025.6 0.0
 
Date/Time
EST
Temp
°C
App
Temp
°C
Dew
Point
°C
Rel
Hum
%
Delta-T
°C
Wind Press
QNH
hPa
Press
MSL
hPa
Rain since
9am
mm
Dir  Spd
km/h
Gust
km/h
Spd
kts
Gust
kts
29/11:30pm 3.3 -0.2 1.3 87 0.8 SE 9 9 5 5 1025.7 1025.8 0.0
29/11:00pm 4.1 1.1 2.0 86 0.8 ESE 7 9 4 5 1025.7 1025.8 0.0
29/10:30pm 4.6 0.9 2.3 85 0.9 ENE 11 13 6 7 1026.0 1026.0 0.0
29/10:00pm 4.6 1.3 2.3 85 0.9 ESE 9 11 5 6 1026.0 1026.0 0.0
29/09:30pm 5.0 1.3 2.5 84 1.0 NE 11 13 6 7 1025.8 1025.9 0.0
29/09:00pm 4.9 1.9 2.1 82 1.1 NNE 7 11 4 6 1025.6 1025.6 0.0
29/08:30pm 6.0 4.1 3.0 81 1.3 ENE 2 7 1 4 1025.7 1025.8 0.0
29/08:00pm 6.0 4.2 3.3 83 1.1 ENE 2 6 1 3 1026.0 1026.0 0.0
29/07:30pm 6.7 3.9 3.1 78 1.5 NE 7 11 4 6 1025.8 1025.9 0.0
29/07:00pm 7.9 4.8 3.8 75 1.8 NE 9 11 5 6 1025.6 1025.6 0.0
29/06:30pm 10.8 8.6 3.1 59 3.4 SSW 4 6 2 3 1025.4 1025.4 0.0
29/06:00pm 11.8 8.5 2.5 53 4.1 SW 9 11 5 6 1025.3 1025.3 0.0
29/05:30pm 14.3 11.1 2.9 46 5.2 SW 9 9 5 5 1025.1 1025.1 0.0
29/05:00pm 15.0 11.9 3.5 46 5.3 SW 9 11 5 6 1025.0 1025.0 0.0
29/04:30pm 17.0 14.0 4.3 43 6.1 WSW 9 13 5 7 1024.8 1024.8 0.0
29/04:00pm 17.7 15.1 3.2 38 6.8 WNW 6 17 3 9 1024.8 1024.8 0.0
29/03:30pm 17.9 14.2 2.2 35 7.3 SW 11 15 6 8 1024.6 1024.6 0.0
29/03:00pm 18.5 15.8 2.4 34 7.5 WNW 6 9 3 5 1024.5 1024.5 0.0
29/02:30pm 17.8 14.1 2.5 36 7.1 WSW 11 17 6 9 1024.4 1024.4 0.0
29/02:00pm 17.3 14.3 3.9 41 6.4 SW 9 15 5 8 1024.7 1024.7 0.0

Latest Capital City Observations: Canberra | Sydney | Melbourne | Brisbane | Adelaide | Perth | Hobart | Darwin

Other Formats:

Comma delimited format used in spreadsheet applications
http://www.bom.gov.au/fwo/IDQ60901/IDQ60901.94552.axf

JavaScript Object Notation format (JSON) in row-major order
http://www.bom.gov.au/fwo/IDQ60901/IDQ60901.94552.json